Time;durP1;ratioP1;P1;durP2;ratioP2;P2;SDS_P1;SDS_P2;PMS_P1;PMS_P2;Temp;Humidity;BMP_temperature;BMP_pressure;BME280_temperature;BME280_humidity;BME280_pressure;Samples;Min_cycle;Max_cycle;Signal;HPM_P1;HPM_P2
2022/04/04 00:01:48;;;;;;;2.28;2.05;;;;;;;0.39;73.31;101877.13;5016048;28;20108;-84
2022/04/04 00:04:13;;;;;;;2.33;1.98;;;;;;;0.41;75.02;101883.16;5016597;28;20117;-84
2022/04/04 00:06:39;;;;;;;3.22;2.40;;;;;;;0.38;74.28;101881.34;5016138;28;20066;-85
2022/04/04 00:09:04;;;;;;;2.90;2.35;;;;;;;0.35;73.55;101880.34;4997649;28;20466;-84
2022/04/04 00:11:30;;;;;;;3.88;2.35;;;;;;;0.35;73.92;101872.69;4996541;28;20025;-84
2022/04/04 00:13:55;;;;;;;2.53;2.20;;;;;;;0.31;74.66;101869.13;4996687;28;20502;-84
2022/04/04 00:16:20;;;;;;;3.17;2.20;;;;;;;0.28;73.92;101857.09;4995613;28;20029;-85
2022/04/04 00:18:46;;;;;;;2.75;2.30;;;;;;;0.29;74.15;101857.97;5014114;28;20029;-84
2022/04/04 00:21:11;;;;;;;4.10;2.75;;;;;;;0.30;73.26;101864.84;5016318;28;20385;-85
2022/04/04 00:23:36;;;;;;;3.45;2.63;;;;;;;0.29;73.34;101853.72;5015107;28;20115;-84
2022/04/04 00:26:04;;;;;;;3.28;2.47;;;;;;;0.28;73.46;101856.22;5016002;28;20100;-84
2022/04/04 00:28:30;;;;;;;4.85;2.70;;;;;;;0.27;74.37;101849.38;4996639;28;20564;-84
2022/04/04 00:30:55;;;;;;;4.00;2.60;;;;;;;0.26;73.45;101845.97;4995881;28;20050;-85
2022/04/04 00:33:20;;;;;;;4.43;2.70;;;;;;;0.24;75.20;101850.13;4996214;28;20109;-84
2022/04/04 00:35:45;;;;;;;2.90;2.53;;;;;;;0.25;74.35;101845.88;4995492;28;20027;-85
2022/04/04 00:38:11;;;;;;;3.83;2.70;;;;;;;0.21;74.21;101842.31;4996272;28;20031;-84
2022/04/04 00:40:37;;;;;;;3.85;2.65;;;;;;;0.23;74.54;101837.28;4995774;28;20463;-85
2022/04/04 00:43:02;;;;;;;5.20;3.40;;;;;;;0.20;75.24;101826.94;4995304;28;20062;-84
2022/04/04 00:45:27;;;;;;;5.35;3.33;;;;;;;0.20;74.42;101832.91;4995751;28;20467;-84
2022/04/04 00:47:53;;;;;;;4.10;3.10;;;;;;;0.19;74.06;101818.41;4996073;28;20466;-84
2022/04/04 00:50:18;;;;;;;5.40;3.47;;;;;;;0.19;76.18;101817.53;4994843;28;20046;-84
2022/04/04 00:52:44;;;;;;;7.45;3.70;;;;;;;0.15;77.20;101814.84;4995981;28;20030;-85
2022/04/04 00:55:10;;;;;;;6.35;3.55;;;;;;;0.12;77.05;101819.81;4995778;28;20022;-85
2022/04/04 00:57:39;;;;;;;6.35;3.58;;;;;;;0.13;74.96;101810.50;5006293;28;20045;-85
2022/04/04 01:00:06;;;;;;;5.70;3.40;;;;;;;0.11;76.11;101805.28;5014861;28;20052;-85
2022/04/04 01:02:32;;;;;;;5.90;3.47;;;;;;;0.10;77.61;101810.34;5014933;28;20437;-85
2022/04/04 01:04:57;;;;;;;6.20;3.50;;;;;;;0.06;76.63;101799.13;5014427;28;20022;-85
2022/04/04 01:07:22;;;;;;;6.03;3.40;;;;;;;0.08;76.99;101800.09;5014220;28;20034;-85
2022/04/04 01:09:48;;;;;;;5.57;3.40;;;;;;;0.04;77.63;101785.44;5015233;28;20105;-84
2022/04/04 01:12:13;;;;;;;5.97;3.58;;;;;;;0.07;76.06;101789.78;5013966;28;20412;-85
2022/04/04 01:14:46;;;;;;;5.30;3.38;;;;;;;0.06;75.89;101778.72;5014894;28;20433;-85
2022/04/04 01:17:12;;;;;;;6.50;3.60;;;;;;;0.04;77.59;101780.31;5015298;28;20033;-85
2022/04/04 01:19:37;;;;;;;6.38;3.78;;;;;;;0.01;76.99;101774.22;5013998;28;20385;-85
2022/04/04 01:22:07;;;;;;;8.60;4.38;;;;;;;-0.06;79.17;101762.88;5015007;28;20018;-85
2022/04/04 01:24:32;;;;;;;8.70;4.72;;;;;;;-0.03;77.14;101763.88;5011567;28;20054;-85
2022/04/04 01:26:57;;;;;;;9.98;5.03;;;;;;;-0.04;76.79;101757.03;4995557;28;20028;-85
2022/04/04 01:29:23;;;;;;;10.02;5.00;;;;;;;0.03;76.66;101757.31;4995184;28;20034;-86
2022/04/04 01:31:49;;;;;;;10.23;5.15;;;;;;;0.03;75.76;101755.59;4995417;28;20018;-84
2022/04/04 01:34:17;;;;;;;9.83;4.80;;;;;;;0.02;77.97;101742.78;4994545;28;20436;-86
2022/04/04 01:36:43;;;;;;;10.57;5.43;;;;;;;0.06;77.65;101742.97;4995044;28;20641;-85
2022/04/04 01:39:08;;;;;;;10.82;5.25;;;;;;;0.04;77.63;101739.47;4994602;28;20026;-85
2022/04/04 01:41:34;;;;;;;10.48;5.20;;;;;;;0.07;77.51;101731.97;4994769;28;20038;-85
2022/04/04 01:43:59;;;;;;;11.07;5.65;;;;;;;0.12;76.04;101721.94;4995143;28;20110;-85
2022/04/04 01:46:24;;;;;;;9.85;5.10;;;;;;;0.12;76.75;101716.84;4994134;28;20053;-85
2022/04/04 01:48:51;;;;;;;9.90;4.93;;;;;;;0.13;76.18;101709.22;4995147;28;20037;-85
2022/04/04 01:51:20;;;;;;;10.45;5.18;;;;;;;0.16;77.55;101716.16;5022527;28;20038;-85
2022/04/04 01:53:46;;;;;;;8.63;4.55;;;;;;;0.15;77.44;101702.50;5034770;28;20029;-84
2022/04/04 01:56:12;;;;;;;10.40;5.10;;;;;;;0.18;76.84;101708.56;5033897;28;20393;-85
2022/04/04 01:58:39;;;;;;;9.80;5.30;;;;;;;0.21;76.86;101699.34;5033878;28;20022;-85
2022/04/04 02:01:15;;;;;;;10.30;4.85;;;;;;;0.18;77.18;101699.22;5033683;28;20030;-85
2022/04/04 02:03:43;;;;;;;9.63;5.13;;;;;;;0.18;77.62;101683.03;5034506;28;20033;-85
2022/04/04 02:06:08;;;;;;;10.50;5.00;;;;;;;0.18;77.72;101680.47;5034133;28;20025;-85
2022/04/04 02:08:34;;;;;;;10.43;5.40;;;;;;;0.22;77.36;101679.81;5032858;28;20380;-85
2022/04/04 02:11:00;;;;;;;11.18;5.50;;;;;;;0.21;78.29;101675.50;5030592;28;20026;-85
2022/04/04 02:13:27;;;;;;;9.95;5.00;;;;;;;0.21;77.30;101670.41;5013650;28;20133;-85
2022/04/04 02:15:53;;;;;;;10.93;5.00;;;;;;;0.24;77.24;101670.50;5013582;28;20034;-85
2022/04/04 02:18:19;;;;;;;9.37;5.17;;;;;;;0.24;77.48;101665.41;5014616;28;20022;-86
2022/04/04 02:20:45;;;;;;;9.60;4.63;;;;;;;0.24;77.34;101661.19;5034089;28;20053;-85
2022/04/04 02:23:11;;;;;;;10.15;4.95;;;;;;;0.24;77.25;101662.84;5033052;28;20029;-85
2022/04/04 02:25:37;;;;;;;10.65;5.68;;;;;;;0.25;77.49;101660.38;5037685;28;20030;-85
2022/04/04 02:28:03;;;;;;;10.32;5.13;;;;;;;0.30;76.86;101658.00;5036734;28;20366;-85
2022/04/04 02:30:28;;;;;;;9.80;5.20;;;;;;;0.29;76.86;101644.34;5035891;28;20064;-84
2022/04/04 02:32:53;;;;;;;10.63;5.70;;;;;;;0.32;77.27;101643.63;5038536;28;20025;-84
2022/04/04 02:35:19;;;;;;;10.60;5.10;;;;;;;0.38;76.23;101637.88;5036529;28;20048;-85
2022/04/04 02:37:44;;;;;;;9.38;4.90;;;;;;;0.38;77.77;101631.06;5033488;28;20385;-85
2022/04/04 02:40:10;;;;;;;11.07;4.78;;;;;;;0.38;76.92;101625.13;5033236;28;20075;-85
2022/04/04 02:42:35;;;;;;;9.60;4.90;;;;;;;0.40;76.96;101628.56;5032578;28;20116;-85
2022/04/04 02:45:01;;;;;;;10.63;5.55;;;;;;;0.39;77.91;101624.31;5016071;28;20076;-85
2022/04/04 02:47:27;;;;;;;10.13;4.88;;;;;;;0.40;77.84;101619.25;5023118;28;20100;-85
2022/04/04 02:49:52;;;;;;;10.45;4.90;;;;;;;0.43;78.04;101610.81;5040641;28;20500;-85
2022/04/04 02:52:17;;;;;;;10.10;5.20;;;;;;;0.45;78.18;101602.41;5052672;28;20017;-85
2022/04/04 02:54:43;;;;;;;8.07;4.78;;;;;;;0.45;78.13;101593.88;5053329;28;20051;-84
2022/04/04 02:57:08;;;;;;;9.70;5.00;;;;;;;0.50;77.24;101596.59;5050686;28;20094;-85
2022/04/04 02:59:33;;;;;;;8.45;5.00;;;;;;;0.50;77.34;101596.59;5052753;28;20024;-85
2022/04/04 03:01:58;;;;;;;8.55;4.60;;;;;;;0.51;78.04;101588.13;5052868;28;20037;-85
2022/04/04 03:04:24;;;;;;;10.88;5.07;;;;;;;0.50;78.10;101576.19;5052156;28;20037;-85
2022/04/04 03:06:49;;;;;;;9.77;4.90;;;;;;;0.52;77.58;101567.75;5052833;28;20020;-85
2022/04/04 03:09:17;;;;;;;7.75;4.43;;;;;;;0.52;77.95;101565.19;5052699;28;20025;-85
2022/04/04 03:11:42;;;;;;;7.40;4.38;;;;;;;0.58;76.82;101555.22;5051969;28;20095;-85
2022/04/04 03:14:08;;;;;;;7.15;4.03;;;;;;;0.57;78.36;101558.59;5052483;28;20033;-84
2022/04/04 03:16:33;;;;;;;8.48;4.88;;;;;;;0.61;77.99;101541.69;5032357;28;20486;-85
2022/04/04 03:18:59;;;;;;;8.95;4.80;;;;;;;0.61;77.88;101545.13;5031855;28;20026;-85
2022/04/04 03:21:27;;;;;;;9.80;4.60;;;;;;;0.62;78.55;101538.31;5032420;28;20084;-84
2022/04/04 03:23:53;;;;;;;8.32;4.50;;;;;;;0.60;76.25;101530.63;5038795;28;20030;-85
2022/04/04 03:26:18;;;;;;;8.68;4.53;;;;;;;0.65;77.59;101530.78;5038623;28;20029;-85
2022/04/04 03:28:45;;;;;;;9.35;4.90;;;;;;;0.67;78.46;101533.38;5039453;28;20025;-85
2022/04/04 03:31:11;;;;;;;;;;;;;;;0.69;78.53;101530.06;5039592;28;20387;-85
2022/04/04 03:33:36;;;;;;;9.07;4.80;;;;;;;0.68;78.57;101522.34;5038413;28;19917;-84
2022/04/04 03:36:02;;;;;;;9.13;4.78;;;;;;;0.71;78.95;101520.78;5039234;28;20033;-85
2022/04/04 03:38:27;;;;;;;9.80;4.70;;;;;;;0.74;78.08;101520.00;5038810;28;20151;-86
2022/04/04 03:40:54;;;;;;;8.80;4.30;;;;;;;0.76;78.05;101516.72;5055678;28;20025;-85
2022/04/04 03:43:19;;;;;;;9.23;4.93;;;;;;;0.76;78.25;101501.38;5048684;28;20473;-85
2022/04/04 03:45:45;;;;;;;11.77;5.35;;;;;;;0.77;79.55;101500.56;5038666;28;20029;-85
2022/04/04 03:48:10;;;;;;;10.68;5.32;;;;;;;0.79;78.85;101495.50;5039375;28;20041;-85
2022/04/04 03:50:37;;;;;;;11.00;4.93;;;;;;;0.82;78.42;101494.72;5038504;28;20072;-86
2022/04/04 03:53:03;;;;;;;8.52;4.35;;;;;;;0.83;78.14;101483.69;5038466;28;20673;-85
2022/04/04 03:55:32;;;;;;;9.57;4.60;;;;;;;0.88;77.68;101484.72;5039068;28;20017;-85
2022/04/04 03:57:57;;;;;;;9.65;4.50;;;;;;;0.88;78.16;101477.06;5039168;28;20037;-85
2022/04/04 04:00:24;;;;;;;6.82;4.07;;;;;;;0.89;78.18;101476.25;5038180;28;20025;-84
2022/04/04 04:02:53;;;;;;;;;;;;;;;0.92;78.41;101473.78;5039613;28;20025;-86
2022/04/04 04:05:19;;;;;;;7.95;4.15;;;;;;;0.94;77.81;101474.72;5038691;28;19920;-84
2022/04/04 04:07:45;;;;;;;9.43;4.80;;;;;;;0.95;79.02;101467.94;5038152;28;20458;-84
2022/04/04 04:10:13;;;;;;;10.15;4.63;;;;;;;0.98;78.14;101465.44;5042193;28;20096;-87
2022/04/04 04:12:40;;;;;;;7.65;4.30;;;;;;;0.99;78.31;101457.84;5059040;28;20031;-86
2022/04/04 04:15:10;;;;;;;9.57;4.60;;;;;;;1.01;78.20;101455.34;5058601;28;20143;-86
2022/04/04 04:17:36;;;;;;;10.10;4.97;;;;;;;1.02;77.62;101445.16;5059559;28;20056;-84
2022/04/04 04:20:20;;;;;;;7.85;4.32;;;;;;;1.04;77.67;101438.41;5058466;28;20119;-84
2022/04/04 04:22:50;;;;;;;7.07;3.95;;;;;;;1.05;78.37;101445.28;5057138;28;20044;-83
2022/04/04 04:25:16;;;;;;;8.50;4.43;;;;;;;1.08;77.60;101436.81;5058364;28;20025;-83
2022/04/04 04:27:42;;;;;;;9.97;4.87;;;;;;;1.10;78.19;101431.78;5058442;28;20033;-83
2022/04/04 04:30:13;;;;;;;9.17;4.60;;;;;;;1.12;77.96;101433.56;5058596;28;20024;-83
2022/04/04 04:32:43;;;;;;;10.50;5.03;;;;;;;1.12;78.96;101425.88;5058579;28;20680;-83
2022/04/04 04:35:09;;;;;;;9.80;4.72;;;;;;;1.14;79.17;101424.25;5049078;28;20022;-83
2022/04/04 04:37:35;;;;;;;10.15;4.60;;;;;;;1.14;78.90;101408.91;5047891;28;20037;-82
2022/04/04 04:40:00;;;;;;;9.27;4.90;;;;;;;1.18;78.26;101404.78;5055920;28;20108;-84
2022/04/04 04:42:25;;;;;;;9.88;5.00;;;;;;;1.23;78.32;101401.53;5054464;28;20025;-84
2022/04/04 04:44:51;;;;;;;12.07;5.88;;;;;;;1.31;78.15;101391.56;5054923;28;20028;-83
2022/04/04 04:47:18;;;;;;;11.98;5.47;;;;;;;1.28;78.45;101386.34;5055324;28;20040;-83
2022/04/04 04:49:43;;;;;;;;;;;;;;;1.30;77.99;101387.25;5053804;28;20081;-84
2022/04/04 04:52:08;;;;;;;10.47;5.20;;;;;;;1.41;77.80;101384.16;5055638;28;19913;-84
2022/04/04 04:54:34;;;;;;;12.15;5.70;;;;;;;1.32;79.12;101377.97;5055120;28;20035;-84
2022/04/04 04:56:59;;;;;;;9.43;4.97;;;;;;;1.34;78.32;101376.31;5054831;28;20108;-83
2022/04/04 04:59:25;;;;;;;11.82;5.68;;;;;;;1.38;79.06;101369.59;5054582;28;20029;-84
2022/04/04 05:01:50;;;;;;;12.48;6.00;;;;;;;1.44;78.33;101368.94;5055309;28;20105;-84
2022/04/04 05:04:15;;;;;;;12.25;5.70;;;;;;;1.42;78.95;101360.34;5052541;28;20056;-85
2022/04/04 05:06:41;;;;;;;11.05;5.70;;;;;;;1.45;78.98;101363.00;5035941;28;20112;-83
2022/04/04 05:09:06;;;;;;;13.88;6.30;;;;;;;1.49;79.09;101354.56;5035126;28;20028;-83
2022/04/04 05:11:31;;;;;;;13.30;6.35;;;;;;;1.51;78.52;101343.59;5033820;28;20025;-83
2022/04/04 05:13:56;;;;;;;13.05;6.20;;;;;;;1.52;78.53;101340.19;5034878;28;20100;-83
2022/04/04 05:16:28;;;;;;;11.77;5.70;;;;;;;1.55;79.23;101334.31;5034441;28;20022;-83
2022/04/04 05:18:53;;;;;;;11.75;6.10;;;;;;;1.57;78.78;101330.09;5034299;28;20052;-83
2022/04/04 05:21:19;;;;;;;15.10;6.93;;;;;;;1.68;78.10;101326.19;5034764;28;20057;-83
2022/04/04 05:23:47;;;;;;;13.20;6.45;;;;;;;1.72;78.08;101316.88;5035068;28;20422;-84
2022/04/04 05:26:18;;;;;;;12.80;6.07;;;;;;;1.72;79.22;101314.34;5034107;28;20033;-83
2022/04/04 05:28:44;;;;;;;15.90;6.72;;;;;;;1.84;77.30;101308.69;5034183;28;20032;-83
2022/04/04 05:31:10;;;;;;;15.20;7.20;;;;;;;1.82;78.64;101302.63;5034529;28;20471;-83
2022/04/04 05:33:36;;;;;;;16.98;7.93;;;;;;;1.85;78.88;101297.63;5034338;28;20048;-83
2022/04/04 05:36:02;;;;;;;15.02;6.93;;;;;;;1.92;78.33;101304.63;5034226;28;20057;-83
2022/04/04 05:38:28;;;;;;;13.47;6.80;;;;;;;1.96;77.99;101298.78;5033337;28;20033;-83
2022/04/04 05:40:53;;;;;;;16.45;7.55;;;;;;;1.99;78.55;101291.19;5034473;28;20021;-83
2022/04/04 05:43:18;;;;;;;15.57;7.40;;;;;;;1.98;79.33;101292.00;5033906;28;20393;-83
2022/04/04 05:45:44;;;;;;;14.27;6.78;;;;;;;2.02;78.85;101285.28;5033339;28;20025;-83
2022/04/04 05:48:09;;;;;;;15.20;7.38;;;;;;;2.03;79.18;101279.34;5034167;28;20029;-83
2022/04/04 05:50:35;;;;;;;15.45;6.80;;;;;;;2.07;78.51;101276.03;5033575;28;20052;-83
2022/04/04 05:53:00;;;;;;;14.93;7.32;;;;;;;2.11;78.67;101282.09;5033035;28;20096;-83
2022/04/04 05:55:25;;;;;;;15.32;7.43;;;;;;;2.18;78.83;101260.09;5032694;28;20296;-83
2022/04/04 05:57:50;;;;;;;15.70;7.57;;;;;;;2.22;77.97;101261.88;5050037;28;20041;-86
2022/04/04 06:00:16;;;;;;;15.10;7.30;;;;;;;2.24;77.86;101261.13;5052986;28;20058;-86
2022/04/04 06:02:44;;;;;;;14.48;6.72;;;;;;;2.28;78.23;101256.94;5036645;28;20441;-87
2022/04/04 06:05:10;;;;;;;12.48;6.57;;;;;;;2.28;78.51;101246.69;5055162;28;20039;-86
2022/04/04 06:07:35;;;;;;;15.23;6.53;;;;;;;2.34;78.46;101240.84;5073795;28;20021;-84
2022/04/04 06:10:02;;;;;;;14.40;6.57;;;;;;;2.37;77.80;101240.91;5053221;28;20025;-84
2022/04/04 06:12:28;;;;;;;14.50;7.20;;;;;;;2.36;78.19;101241.78;5053234;28;20123;-84
2022/04/04 06:14:53;;;;;;;15.18;7.25;;;;;;;2.40;78.16;101236.75;5053135;28;20468;-83
2022/04/04 06:17:19;;;;;;;16.17;7.40;;;;;;;2.46;77.34;101233.47;5053328;28;20059;-83
2022/04/04 06:19:45;;;;;;;15.07;7.47;;;;;;;2.50;77.47;101219.03;5045431;28;20025;-84
2022/04/04 06:22:10;;;;;;;15.40;7.20;;;;;;;2.57;76.74;101224.34;5032771;28;20105;-83
2022/04/04 06:24:35;;;;;;;13.90;7.05;;;;;;;2.61;77.61;101218.44;5033305;28;20021;-84
2022/04/04 06:27:01;;;;;;;15.82;7.72;;;;;;;2.69;76.32;101221.19;5035440;28;20061;-84
2022/04/04 06:29:27;;;;;;;15.23;7.60;;;;;;;2.73;76.35;101214.44;5052631;28;20021;-84
2022/04/04 06:31:52;;;;;;;17.33;8.38;;;;;;;2.83;76.26;101218.94;5053555;28;20031;-84
2022/04/04 06:34:19;;;;;;;17.98;9.10;;;;;;;2.89;75.60;101210.53;5052593;28;20374;-84
2022/04/04 06:36:45;;;;;;;17.13;8.52;;;;;;;3.00;75.20;101205.66;5053102;28;20067;-84
2022/04/04 06:39:10;;;;;;;16.17;7.90;;;;;;;3.04;75.65;101215.16;5053066;28;20362;-84
2022/04/04 06:41:36;;;;;;;18.25;8.68;;;;;;;3.17;75.41;101200.88;5052012;28;20032;-84
2022/04/04 06:44:03;;;;;;;17.83;8.20;;;;;;;3.14;75.84;101177.72;5053061;28;20104;-84
2022/04/04 06:46:28;;;;;;;14.90;7.78;;;;;;;3.25;75.24;101196.75;5053211;28;20102;-84
2022/04/04 06:48:53;;;;;;;15.60;7.72;;;;;;;3.29;75.63;101190.00;5052457;28;20476;-85
2022/04/04 06:51:19;;;;;;;14.98;7.50;;;;;;;3.32;75.62;101180.66;5052839;28;20071;-83
2022/04/04 06:53:45;;;;;;;15.70;7.80;;;;;;;3.35;75.37;101177.31;5051268;28;20032;-83
2022/04/04 06:56:12;;;;;;;15.50;7.67;;;;;;;3.41;75.00;101177.41;5039626;28;20091;-82
2022/04/04 06:58:37;;;;;;;15.77;7.82;;;;;;;3.47;74.12;101181.78;5032739;28;20030;-82
2022/04/04 07:01:02;;;;;;;17.85;8.18;;;;;;;3.49;74.52;101165.59;5033039;28;20025;-82
2022/04/04 07:03:28;;;;;;;15.27;7.20;;;;;;;3.54;73.90;101158.00;5032111;28;20033;-83
2022/04/04 07:05:53;;;;;;;14.90;7.38;;;;;;;3.61;74.39;101159.84;5033079;28;20108;-82
2022/04/04 07:08:18;;;;;;;17.20;8.02;;;;;;;3.70;74.88;101143.75;5032755;28;20029;-82
2022/04/04 07:10:44;;;;;;;16.00;7.50;;;;;;;3.78;74.42;101143.84;5032229;28;20042;-83
2022/04/04 07:13:09;;;;;;;16.45;7.75;;;;;;;3.86;73.88;101137.16;5033198;28;20057;-82
2022/04/04 07:15:38;;;;;;;15.00;7.60;;;;;;;3.93;74.00;101135.56;5032724;28;20119;-83
2022/04/04 07:18:03;;;;;;;14.10;7.28;;;;;;;4.08;72.97;101129.81;5032049;28;20083;-82
2022/04/04 07:20:28;;;;;;;14.15;7.25;;;;;;;4.07;72.85;101115.25;5032258;28;20112;-82
2022/04/04 07:22:54;;;;;;;16.40;7.50;;;;;;;4.09;71.87;101113.56;5033974;28;20026;-83
2022/04/04 07:25:21;;;;;;;15.82;7.75;;;;;;;4.13;72.49;101098.22;5031801;28;20025;-82
2022/04/04 07:27:46;;;;;;;15.57;7.85;;;;;;;4.16;71.75;101100.84;5033143;28;20115;-83
2022/04/04 07:30:17;;;;;;;14.60;7.35;;;;;;;4.20;72.26;101098.31;5032972;28;20041;-83
2022/04/04 07:32:54;;;;;;;14.90;7.43;;;;;;;4.23;72.32;101090.66;5032086;28;20481;-82
2022/04/04 07:35:23;;;;;;;;;;;;;;;4.29;71.58;101101.88;5032307;28;20038;-82
2022/04/04 07:37:50;;;;;;;14.98;7.53;;;;;;;4.36;71.27;101096.81;5031597;28;20376;-83
2022/04/04 07:40:17;;;;;;;17.50;8.20;;;;;;;4.37;71.43;101094.28;5032648;28;20017;-82
2022/04/04 07:42:44;;;;;;;16.00;7.88;;;;;;;4.40;71.58;101084.03;5041376;28;20032;-82
2022/04/04 07:45:13;;;;;;;16.15;8.50;;;;;;;4.47;70.64;101078.16;5051692;28;20086;-81
2022/04/04 07:47:39;;;;;;;14.13;7.50;;;;;;;4.51;71.16;101079.06;5052046;28;20477;-82
2022/04/04 07:50:07;;;;;;;13.85;7.40;;;;;;;4.47;71.00;101067.88;5052319;28;20080;-82
2022/04/04 07:52:32;;;;;;;14.43;7.78;;;;;;;4.56;71.06;101069.69;5051025;28;20404;-82
2022/04/04 07:54:58;;;;;;;13.75;7.30;;;;;;;4.59;71.49;101067.16;5052338;28;20025;-82
2022/04/04 07:57:23;;;;;;;14.20;7.47;;;;;;;4.64;72.06;101056.94;5050985;28;20094;-81
2022/04/04 07:59:51;;;;;;;13.85;7.20;;;;;;;4.72;71.49;101049.31;5051710;28;20021;-81
2022/04/04 08:02:16;;;;;;;13.07;7.15;;;;;;;4.78;71.34;101052.00;5052321;28;20033;-82
2022/04/04 08:04:42;;;;;;;15.02;7.00;;;;;;;4.83;71.58;101041.75;5052405;28;20017;-82
2022/04/04 08:07:10;;;;;;;12.63;6.88;;;;;;;4.90;71.07;101034.09;5051401;28;20021;-81
2022/04/04 08:09:36;;;;;;;13.88;7.15;;;;;;;4.96;71.50;101030.72;5054242;28;20370;-81
2022/04/04 08:12:01;;;;;;;14.55;7.40;;;;;;;5.09;70.65;101029.16;5035812;28;20033;-82
2022/04/04 08:14:27;;;;;;;13.88;7.28;;;;;;;5.18;70.46;101023.25;5035096;28;20064;-81
2022/04/04 08:16:52;;;;;;;13.63;7.22;;;;;;;5.24;70.20;101018.16;5035946;28;20029;-82
2022/04/04 08:19:18;;;;;;;15.15;7.20;;;;;;;5.32;69.31;100998.50;5035652;28;20049;-82
2022/04/04 08:21:44;;;;;;;15.80;7.85;;;;;;;5.37;69.37;101011.41;5035007;28;20014;-82
2022/04/04 08:24:10;;;;;;;15.88;7.70;;;;;;;5.38;68.06;100997.69;5036010;28;20127;-81
2022/04/04 08:26:39;;;;;;;15.77;7.77;;;;;;;5.39;68.32;101002.88;5035509;28;20116;-82
2022/04/04 08:29:05;;;;;;;15.25;7.78;;;;;;;5.48;67.96;100996.06;5035006;28;20023;-82
2022/04/04 08:31:31;;;;;;;15.43;6.97;;;;;;;5.54;67.90;101003.81;5035369;28;20099;-82
2022/04/04 08:33:57;;;;;;;14.45;7.20;;;;;;;5.58;67.25;100990.13;5034997;28;20296;-82
2022/04/04 08:36:22;;;;;;;13.60;7.13;;;;;;;5.64;66.31;100987.59;5052241;28;20017;-82
2022/04/04 08:38:47;;;;;;;14.13;6.80;;;;;;;5.73;67.79;100991.97;5045437;28;20454;-82
2022/04/04 08:41:13;;;;;;;13.53;6.73;;;;;;;5.82;66.47;100974.00;5035132;28;20071;-81
2022/04/04 08:43:42;;;;;;;14.27;7.03;;;;;;;5.95;66.89;100984.38;5035343;28;20029;-82
2022/04/04 08:46:07;;;;;;;13.32;6.63;;;;;;;6.03;66.88;100972.41;5035605;28;20362;-82
2022/04/04 08:48:36;;;;;;;14.32;6.97;;;;;;;6.12;66.55;100963.88;5034397;28;20079;-82
2022/04/04 08:51:02;;;;;;;14.52;7.07;;;;;;;6.10;65.45;100957.84;5035168;28;20056;-81
2022/04/04 08:53:28;;;;;;;13.27;7.13;;;;;;;6.13;65.52;100970.75;5035211;28;20434;-82
2022/04/04 08:55:57;;;;;;;16.00;7.80;;;;;;;6.14;64.51;100954.44;5034736;28;20027;-81
2022/04/04 08:58:24;;;;;;;15.70;7.05;;;;;;;6.09;65.18;100944.13;5035089;28;20300;-82
2022/04/04 09:00:50;;;;;;;16.38;7.47;;;;;;;6.07;65.61;100987.06;5035345;28;20112;-81
2022/04/04 09:03:21;;;;;;;12.45;6.95;;;;;;;6.04;65.64;100943.22;5034388;28;20468;-82
2022/04/04 09:05:52;;;;;;;15.68;7.70;;;;;;;6.02;66.03;100943.22;5036908;28;20029;-81
2022/04/04 09:08:20;;;;;;;14.90;7.38;;;;;;;5.97;66.73;100952.59;5054481;28;20036;-82
2022/04/04 09:10:46;;;;;;;14.65;7.80;;;;;;;5.93;66.07;100930.28;5054330;28;20032;-84
2022/04/04 09:13:17;;;;;;;14.82;7.82;;;;;;;6.05;66.21;100944.09;5054757;28;20029;-81
2022/04/04 09:15:51;;;;;;;16.77;8.23;;;;;;;5.99;66.80;100939.75;5054779;28;20040;-84
2022/04/04 09:18:17;;;;;;;14.95;7.70;;;;;;;5.87;67.41;100909.63;5053913;28;20052;-81
2022/04/04 09:20:50;;;;;;;15.35;7.93;;;;;;;5.90;66.63;100926.81;5036225;28;20029;-81
2022/04/04 09:23:16;;;;;;;16.20;7.82;;;;;;;5.86;67.59;100920.78;5053783;28;20365;-80
2022/04/04 09:25:41;;;;;;;15.52;7.88;;;;;;;5.88;67.80;100924.22;5054689;28;20032;-82
2022/04/04 09:28:15;;;;;;;16.48;8.30;;;;;;;5.88;67.76;100921.66;5054635;28;20036;-80
2022/04/04 09:30:41;;;;;;;16.10;7.82;;;;;;;5.85;68.78;100913.94;5049209;28;20032;-81
2022/04/04 09:33:07;;;;;;;15.80;8.07;;;;;;;5.86;69.20;100902.75;5055215;28;20032;-81
2022/04/04 09:35:45;;;;;;;14.17;7.60;;;;;;;5.82;69.49;100917.31;5052559;28;20021;-82
2022/04/04 09:38:16;;;;;;;17.45;7.55;;;;;;;5.78;70.37;100912.16;5053463;28;20084;-82
2022/04/04 09:40:42;;;;;;;14.85;7.57;;;;;;;5.74;70.20;100928.47;5053942;28;20223;-82
2022/04/04 09:43:07;;;;;;;16.58;8.18;;;;;;;5.71;71.17;100901.84;5054104;28;20493;-83
2022/04/04 09:45:32;;;;;;;17.27;8.00;;;;;;;5.66;72.09;100900.94;5053417;28;20028;-83
2022/04/04 09:48:08;;;;;;;14.73;7.60;;;;;;;5.61;72.94;100899.19;5062578;28;20445;-82
2022/04/04 09:50:45;;;;;;;16.55;8.43;;;;;;;5.58;72.46;100907.75;5073652;28;20135;-83
2022/04/04 09:53:17;;;;;;;16.52;8.68;;;;;;;5.56;72.89;100899.16;5033950;28;20144;-83
2022/04/04 09:55:46;;;;;;;17.15;8.25;;;;;;;5.47;72.63;100893.94;5044698;28;20029;-82
2022/04/04 09:58:17;;;;;;;14.77;8.07;;;;;;;5.46;73.42;100899.94;5053134;28;20041;-83
2022/04/04 10:00:48;;;;;;;16.60;8.10;;;;;;;5.40;72.96;100900.75;5053594;28;20029;-83
2022/04/04 10:03:15;;;;;;;16.63;8.27;;;;;;;5.40;73.43;100881.03;5038317;28;20036;-83
2022/04/04 10:05:43;;;;;;;14.50;7.70;;;;;;;5.37;74.73;100890.44;5033374;28;20631;-82
2022/04/04 10:08:17;;;;;;;15.98;8.20;;;;;;;5.34;75.11;100888.72;5034527;28;20025;-83
2022/04/04 10:10:46;;;;;;;16.27;8.32;;;;;;;5.34;74.58;100873.28;5033867;28;20032;-84
2022/04/04 10:13:17;;;;;;;15.73;7.70;;;;;;;5.34;74.40;100869.84;5033223;28;20036;-83
2022/04/04 10:15:43;;;;;;;15.52;8.32;;;;;;;5.34;75.58;100869.84;5033783;28;20041;-82
2022/04/04 10:18:09;;;;;;;16.42;7.97;;;;;;;5.35;76.65;100871.53;5033614;28;20057;-83
2022/04/04 10:20:38;;;;;;;16.73;8.25;;;;;;;5.38;75.64;100869.88;5032154;28;20048;-81
2022/04/04 10:23:05;;;;;;;16.40;7.93;;;;;;;5.36;77.66;100863.84;5033914;28;20457;-83
2022/04/04 10:25:34;;;;;;;16.45;8.15;;;;;;;5.39;78.30;100853.59;5033542;28;20030;-83
2022/04/04 10:27:59;;;;;;;15.75;8.13;;;;;;;5.40;76.57;100855.28;5047618;28;20029;-83
2022/04/04 10:30:42;;;;;;;16.17;8.02;;;;;;;5.41;77.88;100851.84;5044688;28;20025;-82
2022/04/04 10:33:24;;;;;;;16.15;7.88;;;;;;;5.41;77.18;100861.31;5032527;28;20461;-84
2022/04/04 10:36:22;;;;;;;15.40;7.75;;;;;;;5.42;78.47;100852.75;5032867;28;20072;-84
2022/04/04 10:38:54;;;;;;;14.63;7.45;;;;;;;5.48;78.28;100857.06;5000546;28;20458;-84
2022/04/04 10:41:22;;;;;;;16.08;7.95;;;;;;;5.47;77.62;100868.22;5032317;28;20407;-84
2022/04/04 10:43:49;;;;;;;15.98;8.00;;;;;;;5.42;79.40;100863.03;5033455;28;20026;-85
2022/04/04 10:46:19;;;;;;;15.40;7.90;;;;;;;5.40;79.38;100860.44;5033475;28;20030;-85
2022/04/04 10:48:50;;;;;;;12.27;6.63;;;;;;;5.43;79.48;100858.72;5031854;28;20090;-85
2022/04/04 10:51:18;;;;;;;11.85;6.65;;;;;;;5.40;79.42;100860.44;5032694;28;20084;-84
2022/04/04 10:53:47;;;;;;;14.60;7.72;;;;;;;5.39;80.54;100851.00;5033265;28;20025;-85
2022/04/04 10:56:23;;;;;;;14.00;6.97;;;;;;;5.41;81.05;100841.56;5032619;28;20021;-85
2022/04/04 10:58:51;;;;;;;16.63;8.20;;;;;;;5.37;82.33;100850.13;5044989;28;20118;-85
2022/04/04 11:01:19;;;;;;;13.80;7.30;;;;;;;5.37;81.14;100839.84;5053062;28;20033;-84
2022/04/04 11:03:58;;;;;;;16.27;7.93;;;;;;;5.37;82.75;100831.25;5052306;28;20380;-86
2022/04/04 11:09:32;;;;;;;16.20;8.20;;;;;;;5.29;83.37;100836.38;5051949;28;20036;-82
2022/04/04 11:12:01;;;;;;;15.10;7.70;;;;;;;5.28;82.33;100816.63;5052906;28;20029;-83
2022/04/04 11:14:31;;;;;;;15.07;7.30;;;;;;;5.25;82.89;100820.03;5046271;28;20108;-83
2022/04/04 11:17:08;;;;;;;15.18;8.15;;;;;;;5.27;82.86;100817.47;5032134;28;20041;-82
2022/04/04 11:19:46;;;;;;;13.50;6.50;;;;;;;5.23;84.08;100818.28;5032622;28;20033;-82
2022/04/04 11:22:26;;;;;;;12.35;6.65;;;;;;;5.23;83.35;100796.03;5032773;28;20025;-82
2022/04/04 11:25:19;;;;;;;12.45;6.35;;;;;;;5.23;84.34;100811.47;5032390;28;20033;-82
2022/04/04 11:28:05;;;;;;;11.45;6.63;;;;;;;5.21;84.92;100804.56;5028455;28;20048;-82
2022/04/04 11:30:30;;;;;;;12.80;6.70;;;;;;;5.21;85.11;100809.69;5031818;28;20034;-82
2022/04/04 11:32:57;;;;;;;11.90;6.47;;;;;;;5.19;85.27;100807.13;5032679;28;20029;-82